EWG4HZ LGSM-EDDL
Flight info
| Callsign | EWG4HZ |
|---|---|
| Flight time | 3h 1m |
| Altitude | 36000 |
| Route | LARKI L609 URNIL UL609 MES UL608 GIKAS UN133 PEREN UL863 EVIVI DCT OKANA DCT XENIT DCT BABIT DCT SASAL DCT DEXIT DCT RODIS DCT TESDU DCT AMETU T852 TINSA T854 DOMUX DOMUX1A |
| Aircraft | A320/M-SDE2E3FGIJ1RWXYZ/EB1 |
Departure
| Time | 2026-05-05 08:54 |
|---|---|
| Airport | Samos Airport (LGSM) |
Arrival
| Time | 2026-05-05 11:55 |
|---|---|
| Airport | Düsseldorf Airport (EDDL) |
| Time | Latitude | Longitude | Altitude | Speed | Heading |
|---|---|---|---|---|---|
| 2026-05-05 08:07 | 37.69052 | 26.91428 | 29 ft | 0 kts | 5° |
| 2026-05-05 08:48 | 37.69031 | 26.91426 | 29 ft | 2 kts | 5° |
| 2026-05-05 08:48 | 37.69007 | 26.91427 | 29 ft | 4 kts | 327° |
| 2026-05-05 08:48 | 37.68999 | 26.91447 | 29 ft | 4 kts | 255° |
| 2026-05-05 08:49 | 37.69006 | 26.91480 | 29 ft | 4 kts | 266° |
| 2026-05-05 08:49 | 37.69007 | 26.91492 | 29 ft | 0 kts | 282° |
| 2026-05-05 08:50 | 37.69007 | 26.91491 | 29 ft | 1 kts | 281° |
| 2026-05-05 08:50 | 37.69001 | 26.91434 | 29 ft | 12 kts | 259° |
| 2026-05-05 08:51 | 37.68928 | 26.91360 | 29 ft | 17 kts | 213° |
| 2026-05-05 08:51 | 37.68918 | 26.91208 | 29 ft | 20 kts | 273° |
| 2026-05-05 08:51 | 37.68929 | 26.91019 | 29 ft | 24 kts | 274° |
| 2026-05-05 08:51 | 37.68943 | 26.90794 | 29 ft | 27 kts | 275° |
| 2026-05-05 08:52 | 37.68957 | 26.90547 | 29 ft | 28 kts | 274° |
| 2026-05-05 08:52 | 37.68972 | 26.90306 | 29 ft | 25 kts | 275° |
| 2026-05-05 08:52 | 37.68956 | 26.90174 | 29 ft | 8 kts | 259° |
| 2026-05-05 08:52 | 37.68980 | 26.90173 | 29 ft | 4 kts | 85° |
| 2026-05-05 08:53 | 37.68980 | 26.90177 | 29 ft | 0 kts | 95° |
| 2026-05-05 08:53 | 37.68979 | 26.90190 | 29 ft | 17 kts | 95° |
| 2026-05-05 08:53 | 37.68947 | 26.90721 | 29 ft | 101 kts | 94° |
| 2026-05-05 08:53 | 37.68880 | 26.91892 | 88 ft | 162 kts | 88° |
| 2026-05-05 08:54 | 37.68788 | 26.93285 | 927 ft | 158 kts | 96° |
| 2026-05-05 08:54 | 37.68280 | 26.94583 | 1622 ft | 176 kts | 135° |
| 2026-05-05 08:54 | 37.67215 | 26.95259 | 2267 ft | 175 kts | 176° |
| 2026-05-05 08:54 | 37.66046 | 26.94993 | 2834 ft | 170 kts | 209° |
| 2026-05-05 08:55 | 37.65076 | 26.94144 | 3296 ft | 175 kts | 228° |
| 2026-05-05 08:55 | 37.64179 | 26.92965 | 3511 ft | 197 kts | 234° |
| 2026-05-05 08:55 | 37.63569 | 26.91385 | 3709 ft | 209 kts | 269° |
| 2026-05-05 08:55 | 37.63695 | 26.89536 | 3905 ft | 226 kts | 285° |
| 2026-05-05 08:56 | 37.63981 | 26.87474 | 4231 ft | 250 kts | 285° |
| 2026-05-05 08:56 | 37.64292 | 26.85237 | 4815 ft | 265 kts | 285° |
| 2026-05-05 08:56 | 37.64608 | 26.82909 | 5464 ft | 274 kts | 285° |
| 2026-05-05 08:56 | 37.64921 | 26.80541 | 6371 ft | 273 kts | 285° |
| 2026-05-05 08:57 | 37.65229 | 26.78168 | 7205 ft | 275 kts | 285° |
| 2026-05-05 08:57 | 37.65535 | 26.75777 | 8018 ft | 277 kts | 285° |
| 2026-05-05 08:57 | 37.65847 | 26.73359 | 8804 ft | 281 kts | 285° |
| 2026-05-05 08:57 | 37.66160 | 26.70948 | 9577 ft | 284 kts | 285° |
| 2026-05-05 08:58 | 37.66482 | 26.68475 | 10295 ft | 289 kts | 285° |
| 2026-05-05 08:58 | 37.66826 | 26.65877 | 10529 ft | 312 kts | 285° |
| 2026-05-05 08:58 | 37.67197 | 26.63083 | 10744 ft | 332 kts | 284° |
| 2026-05-05 08:58 | 37.67577 | 26.60164 | 11288 ft | 340 kts | 284° |
| 2026-05-05 08:59 | 37.67963 | 26.57209 | 11958 ft | 342 kts | 286° |
| 2026-05-05 08:59 | 37.68668 | 26.54357 | 12610 ft | 340 kts | 298° |
| 2026-05-05 08:59 | 37.69850 | 26.51790 | 13273 ft | 338 kts | 310° |
| 2026-05-05 08:59 | 37.71444 | 26.49633 | 13934 ft | 337 kts | 322° |
| 2026-05-05 09:00 | 37.73211 | 26.47733 | 14494 ft | 340 kts | 321° |
| 2026-05-05 09:00 | 37.75014 | 26.45784 | 15076 ft | 343 kts | 321° |
| 2026-05-05 09:00 | 37.76833 | 26.43812 | 15641 ft | 346 kts | 320° |
| 2026-05-05 09:00 | 37.78673 | 26.41817 | 16205 ft | 350 kts | 320° |
| 2026-05-05 09:01 | 37.80529 | 26.39799 | 16745 ft | 354 kts | 320° |
| 2026-05-05 09:01 | 37.82402 | 26.37753 | 17297 ft | 357 kts | 319° |
| 2026-05-05 09:01 | 37.84286 | 26.35686 | 17875 ft | 359 kts | 319° |
| 2026-05-05 09:01 | 37.86183 | 26.33609 | 18427 ft | 362 kts | 319° |
| 2026-05-05 09:02 | 37.88068 | 26.31546 | 18892 ft | 365 kts | 319° |
| 2026-05-05 09:02 | 37.89995 | 26.29435 | 19362 ft | 367 kts | 318° |
| 2026-05-05 09:02 | 37.91931 | 26.27308 | 19829 ft | 370 kts | 318° |
| 2026-05-05 09:02 | 37.93883 | 26.25163 | 20283 ft | 373 kts | 318° |
| 2026-05-05 09:03 | 37.95851 | 26.23003 | 20723 ft | 376 kts | 318° |
| 2026-05-05 09:03 | 37.97829 | 26.20825 | 21176 ft | 378 kts | 318° |
| 2026-05-05 09:03 | 37.99821 | 26.18630 | 21618 ft | 381 kts | 318° |
| 2026-05-05 09:03 | 38.01828 | 26.16417 | 22049 ft | 383 kts | 318° |
| 2026-05-05 09:04 | 38.03819 | 26.14218 | 22475 ft | 386 kts | 318° |
| 2026-05-05 09:04 | 38.05850 | 26.11974 | 22889 ft | 389 kts | 318° |
| 2026-05-05 09:04 | 38.07896 | 26.09713 | 23308 ft | 391 kts | 318° |
| 2026-05-05 09:04 | 38.09955 | 26.07437 | 23707 ft | 394 kts | 318° |
| 2026-05-05 09:05 | 38.12025 | 26.05147 | 24062 ft | 396 kts | 318° |
| 2026-05-05 09:05 | 38.14107 | 26.02846 | 24430 ft | 397 kts | 318° |
| 2026-05-05 09:05 | 38.16196 | 26.00537 | 24796 ft | 399 kts | 318° |
| 2026-05-05 09:05 | 38.18293 | 25.98216 | 25154 ft | 400 kts | 318° |
| 2026-05-05 09:06 | 38.20368 | 25.95912 | 25491 ft | 402 kts | 317° |
| 2026-05-05 09:06 | 38.22478 | 25.93567 | 25843 ft | 403 kts | 318° |
| 2026-05-05 09:06 | 38.24594 | 25.91217 | 26219 ft | 404 kts | 318° |
| 2026-05-05 09:06 | 38.26746 | 25.88910 | 26575 ft | 406 kts | 320° |
| 2026-05-05 09:07 | 38.28971 | 25.86686 | 26920 ft | 407 kts | 322° |
| 2026-05-05 09:07 | 38.31236 | 25.84514 | 27256 ft | 409 kts | 322° |
| 2026-05-05 09:07 | 38.33525 | 25.82354 | 27582 ft | 410 kts | 323° |
| 2026-05-05 09:07 | 38.35818 | 25.80186 | 27912 ft | 412 kts | 322° |
| 2026-05-05 09:08 | 38.38086 | 25.78022 | 28239 ft | 413 kts | 322° |
| 2026-05-05 09:08 | 38.40376 | 25.75808 | 28565 ft | 414 kts | 322° |
| 2026-05-05 09:08 | 38.42667 | 25.73570 | 28879 ft | 415 kts | 322° |
| 2026-05-05 09:08 | 38.44955 | 25.71319 | 29169 ft | 417 kts | 322° |
| 2026-05-05 09:09 | 38.47256 | 25.69056 | 29451 ft | 418 kts | 322° |
| 2026-05-05 09:09 | 38.49562 | 25.66793 | 29733 ft | 419 kts | 322° |
| 2026-05-05 09:09 | 38.51876 | 25.64521 | 30009 ft | 420 kts | 322° |
| 2026-05-05 09:09 | 38.54199 | 25.62243 | 30299 ft | 420 kts | 322° |
| 2026-05-05 09:10 | 38.56517 | 25.59970 | 30587 ft | 420 kts | 323° |
| 2026-05-05 09:10 | 38.58797 | 25.57733 | 30931 ft | 418 kts | 323° |
| 2026-05-05 09:10 | 38.61097 | 25.55476 | 31283 ft | 416 kts | 323° |
| 2026-05-05 09:10 | 38.63388 | 25.53225 | 31608 ft | 415 kts | 323° |
| 2026-05-05 09:11 | 38.65673 | 25.50980 | 31932 ft | 414 kts | 323° |
| 2026-05-05 09:11 | 38.67950 | 25.48739 | 32248 ft | 413 kts | 323° |
| 2026-05-05 09:11 | 38.70221 | 25.46503 | 32552 ft | 412 kts | 323° |
| 2026-05-05 09:11 | 38.72489 | 25.44264 | 32866 ft | 411 kts | 323° |
| 2026-05-05 09:12 | 38.74747 | 25.42032 | 33167 ft | 410 kts | 323° |
| 2026-05-05 09:12 | 38.76970 | 25.39834 | 33473 ft | 409 kts | 323° |
| 2026-05-05 09:12 | 38.79217 | 25.37611 | 33780 ft | 408 kts | 323° |
| 2026-05-05 09:12 | 38.81460 | 25.35391 | 34083 ft | 407 kts | 323° |
| 2026-05-05 09:13 | 38.83696 | 25.33173 | 34337 ft | 406 kts | 322° |
| 2026-05-05 09:13 | 38.85925 | 25.30958 | 34590 ft | 405 kts | 323° |
| 2026-05-05 09:13 | 38.88150 | 25.28748 | 34839 ft | 404 kts | 323° |
| 2026-05-05 09:13 | 38.90374 | 25.26538 | 35056 ft | 404 kts | 322° |
| 2026-05-05 09:14 | 38.92596 | 25.24328 | 35259 ft | 404 kts | 322° |
| 2026-05-05 09:14 | 38.94788 | 25.22149 | 35457 ft | 404 kts | 322° |
| 2026-05-05 09:14 | 38.97014 | 25.19936 | 35631 ft | 405 kts | 322° |
| 2026-05-05 09:14 | 38.99244 | 25.17719 | 35809 ft | 405 kts | 322° |
| 2026-05-05 09:15 | 39.01475 | 25.15498 | 36000 ft | 405 kts | 322° |
| 2026-05-05 09:15 | 39.05934 | 25.11045 | 36098 ft | 405 kts | 322° |
| 2026-05-05 09:16 | 39.10386 | 25.06596 | 36099 ft | 405 kts | 322° |
| 2026-05-05 09:16 | 39.14807 | 25.02174 | 36098 ft | 405 kts | 322° |
| 2026-05-05 09:17 | 39.19246 | 24.97711 | 36095 ft | 404 kts | 322° |
| 2026-05-05 09:17 | 39.23673 | 24.93260 | 36096 ft | 404 kts | 322° |
| 2026-05-05 09:18 | 39.28104 | 24.88801 | 36097 ft | 404 kts | 322° |
| 2026-05-05 09:18 | 39.32532 | 24.84342 | 36098 ft | 404 kts | 322° |
| 2026-05-05 09:19 | 39.36929 | 24.79904 | 36099 ft | 404 kts | 322° |
| 2026-05-05 09:19 | 39.41357 | 24.75425 | 36099 ft | 404 kts | 322° |
| 2026-05-05 09:20 | 39.45781 | 24.70947 | 36097 ft | 404 kts | 322° |
| 2026-05-05 09:20 | 39.50277 | 24.66591 | 36104 ft | 404 kts | 329° |
| 2026-05-05 09:21 | 39.55271 | 24.63371 | 36095 ft | 404 kts | 333° |
| 2026-05-05 09:21 | 39.60335 | 24.60203 | 36091 ft | 404 kts | 333° |
| 2026-05-05 09:22 | 39.65392 | 24.57022 | 36086 ft | 404 kts | 333° |
| 2026-05-05 09:22 | 39.70451 | 24.53834 | 36085 ft | 404 kts | 333° |
| 2026-05-05 09:23 | 39.75477 | 24.50665 | 36093 ft | 404 kts | 333° |
| 2026-05-05 09:23 | 39.80538 | 24.47471 | 36084 ft | 404 kts | 333° |
| 2026-05-05 09:24 | 39.85599 | 24.44268 | 36082 ft | 405 kts | 333° |
| 2026-05-05 09:24 | 39.90662 | 24.41058 | 36081 ft | 405 kts | 333° |
| 2026-05-05 09:25 | 39.95694 | 24.37861 | 36062 ft | 405 kts | 333° |
| 2026-05-05 09:25 | 40.00759 | 24.34639 | 36074 ft | 405 kts | 333° |
| 2026-05-05 09:26 | 40.05827 | 24.31410 | 36077 ft | 406 kts | 333° |
| 2026-05-05 09:26 | 40.10897 | 24.28173 | 36081 ft | 406 kts | 333° |
| 2026-05-05 09:27 | 40.15971 | 24.24934 | 36084 ft | 406 kts | 333° |
| 2026-05-05 09:27 | 40.21004 | 24.21715 | 36086 ft | 406 kts | 333° |
| 2026-05-05 09:28 | 40.26072 | 24.18465 | 36085 ft | 406 kts | 333° |
| 2026-05-05 09:28 | 40.31138 | 24.15207 | 36082 ft | 406 kts | 333° |
| 2026-05-05 09:29 | 40.36203 | 24.11947 | 36081 ft | 406 kts | 333° |
| 2026-05-05 09:29 | 40.41234 | 24.08700 | 36082 ft | 405 kts | 333° |
| 2026-05-05 09:30 | 40.46294 | 24.05427 | 36079 ft | 405 kts | 333° |
| 2026-05-05 09:30 | 40.51354 | 24.02153 | 36086 ft | 405 kts | 333° |
| 2026-05-05 09:31 | 40.56414 | 23.98883 | 36086 ft | 405 kts | 333° |
| 2026-05-05 09:31 | 40.61438 | 23.95639 | 36085 ft | 405 kts | 333° |
| 2026-05-05 09:32 | 40.66518 | 23.92441 | 36080 ft | 405 kts | 334° |
| 2026-05-05 09:32 | 40.71606 | 23.89268 | 36082 ft | 405 kts | 334° |
| 2026-05-05 09:33 | 40.76689 | 23.86077 | 36075 ft | 405 kts | 334° |
| 2026-05-05 09:33 | 40.81771 | 23.82866 | 36075 ft | 405 kts | 334° |
| 2026-05-05 09:34 | 40.86818 | 23.79674 | 36073 ft | 405 kts | 334° |
| 2026-05-05 09:34 | 40.91906 | 23.76464 | 36079 ft | 405 kts | 334° |
| 2026-05-05 09:35 | 40.96994 | 23.73241 | 36050 ft | 406 kts | 333° |
| 2026-05-05 09:35 | 41.04625 | 23.68387 | 36056 ft | 406 kts | 334° |
| 2026-05-05 09:36 | 41.09685 | 23.65174 | 36058 ft | 406 kts | 334° |
| 2026-05-05 09:36 | 41.14775 | 23.61929 | 36070 ft | 406 kts | 333° |
| 2026-05-05 09:37 | 41.19877 | 23.58665 | 36066 ft | 407 kts | 333° |
| 2026-05-05 09:37 | 41.24985 | 23.55397 | 36066 ft | 408 kts | 333° |
| 2026-05-05 09:38 | 41.30068 | 23.52138 | 36070 ft | 408 kts | 333° |
| 2026-05-05 09:38 | 41.35181 | 23.48849 | 36076 ft | 408 kts | 333° |
| 2026-05-05 09:39 | 41.40293 | 23.45546 | 36086 ft | 408 kts | 333° |
| 2026-05-05 09:39 | 41.45397 | 23.42228 | 36068 ft | 408 kts | 333° |
| 2026-05-05 09:40 | 41.50463 | 23.38924 | 36085 ft | 408 kts | 333° |
| 2026-05-05 09:40 | 41.55554 | 23.35597 | 36099 ft | 407 kts | 333° |
| 2026-05-05 09:41 | 41.60638 | 23.32264 | 36105 ft | 407 kts | 333° |
| 2026-05-05 09:41 | 41.65722 | 23.28935 | 36107 ft | 407 kts | 333° |
| 2026-05-05 09:42 | 41.70771 | 23.25626 | 36102 ft | 407 kts | 333° |
| 2026-05-05 09:42 | 41.75853 | 23.22289 | 36107 ft | 407 kts | 333° |
| 2026-05-05 09:43 | 41.80932 | 23.18945 | 36103 ft | 407 kts | 333° |
| 2026-05-05 09:43 | 41.86006 | 23.15589 | 36108 ft | 407 kts | 333° |
| 2026-05-05 09:44 | 41.91046 | 23.12249 | 36103 ft | 407 kts | 333° |
| 2026-05-05 09:44 | 41.96127 | 23.08890 | 36099 ft | 407 kts | 333° |
| 2026-05-05 09:45 | 42.01200 | 23.05535 | 36105 ft | 406 kts | 333° |
| 2026-05-05 09:45 | 42.06268 | 23.02170 | 36111 ft | 406 kts | 333° |
| 2026-05-05 09:46 | 42.11332 | 22.98804 | 36106 ft | 406 kts | 333° |
| 2026-05-05 09:46 | 42.16362 | 22.95449 | 36101 ft | 406 kts | 333° |
| 2026-05-05 09:47 | 42.21422 | 22.92064 | 36098 ft | 406 kts | 333° |
| 2026-05-05 09:47 | 42.26494 | 22.88662 | 36087 ft | 408 kts | 333° |
| 2026-05-05 09:48 | 42.30721 | 22.85831 | 36085 ft | 409 kts | 333° |
| 2026-05-05 09:48 | 42.35826 | 22.82410 | 36087 ft | 410 kts | 333° |
| 2026-05-05 09:49 | 42.41765 | 22.78413 | 36084 ft | 411 kts | 333° |
| 2026-05-05 09:49 | 42.46875 | 22.74963 | 36078 ft | 410 kts | 333° |
| 2026-05-05 09:50 | 42.51106 | 22.72107 | 36079 ft | 410 kts | 333° |
| 2026-05-05 09:50 | 42.56213 | 22.68656 | 36089 ft | 410 kts | 333° |
| 2026-05-05 09:51 | 42.61318 | 22.65194 | 36091 ft | 410 kts | 333° |
| 2026-05-05 09:51 | 42.66387 | 22.61754 | 36091 ft | 410 kts | 333° |
| 2026-05-05 09:52 | 42.71489 | 22.58289 | 36099 ft | 410 kts | 333° |
| 2026-05-05 09:52 | 42.76590 | 22.54801 | 36095 ft | 410 kts | 333° |
| 2026-05-05 09:53 | 42.81687 | 22.51308 | 36070 ft | 410 kts | 333° |
| 2026-05-05 09:53 | 42.86525 | 22.47231 | 36076 ft | 410 kts | 321° |
| 2026-05-05 09:54 | 42.90930 | 22.42366 | 36080 ft | 411 kts | 321° |
| 2026-05-05 09:54 | 42.95379 | 22.37467 | 36100 ft | 411 kts | 322° |
| 2026-05-05 09:55 | 42.99828 | 22.32564 | 36087 ft | 411 kts | 322° |
| 2026-05-05 09:55 | 43.04277 | 22.27639 | 36065 ft | 412 kts | 321° |
| 2026-05-05 09:56 | 43.08698 | 22.22740 | 36071 ft | 412 kts | 321° |
| 2026-05-05 09:56 | 43.13153 | 22.17790 | 36074 ft | 412 kts | 321° |
| 2026-05-05 09:57 | 43.17603 | 22.12830 | 36073 ft | 412 kts | 321° |
| 2026-05-05 09:57 | 43.22052 | 22.07861 | 36087 ft | 413 kts | 321° |
| 2026-05-05 09:58 | 43.26507 | 22.02886 | 36064 ft | 413 kts | 321° |
| 2026-05-05 09:58 | 43.30932 | 21.97930 | 36063 ft | 414 kts | 321° |
| 2026-05-05 09:59 | 43.35389 | 21.92934 | 36065 ft | 414 kts | 321° |
| 2026-05-05 09:59 | 43.39846 | 21.87921 | 36071 ft | 414 kts | 321° |
| 2026-05-05 10:00 | 43.44303 | 21.82905 | 36066 ft | 414 kts | 321° |
| 2026-05-05 10:00 | 43.48727 | 21.77914 | 36073 ft | 414 kts | 321° |
| 2026-05-05 10:01 | 43.53178 | 21.72876 | 36073 ft | 414 kts | 321° |
| 2026-05-05 10:01 | 43.57630 | 21.67829 | 36070 ft | 414 kts | 321° |
| 2026-05-05 10:02 | 43.62082 | 21.62777 | 36069 ft | 414 kts | 321° |
| 2026-05-05 10:02 | 43.66502 | 21.57750 | 36056 ft | 415 kts | 320° |
| 2026-05-05 10:03 | 43.70956 | 21.52676 | 36063 ft | 415 kts | 321° |
| 2026-05-05 10:03 | 43.75416 | 21.47590 | 36058 ft | 416 kts | 321° |
| 2026-05-05 10:04 | 43.79876 | 21.42487 | 36052 ft | 416 kts | 321° |
| 2026-05-05 10:04 | 43.84334 | 21.37364 | 36038 ft | 417 kts | 320° |
| 2026-05-05 10:05 | 43.88766 | 21.32273 | 36042 ft | 417 kts | 320° |
| 2026-05-05 10:05 | 43.93231 | 21.27133 | 36045 ft | 417 kts | 320° |
| 2026-05-05 10:06 | 43.97697 | 21.21975 | 36051 ft | 418 kts | 320° |
| 2026-05-05 10:06 | 44.02165 | 21.16803 | 36045 ft | 418 kts | 320° |
| 2026-05-05 10:07 | 44.06610 | 21.11664 | 36038 ft | 419 kts | 320° |
| 2026-05-05 10:07 | 44.11089 | 21.06480 | 36041 ft | 419 kts | 320° |
| 2026-05-05 10:08 | 44.15562 | 21.01276 | 36038 ft | 419 kts | 320° |
| 2026-05-05 10:08 | 44.20030 | 20.96058 | 36040 ft | 419 kts | 320° |
| 2026-05-05 10:09 | 44.24502 | 20.90837 | 36031 ft | 420 kts | 320° |
| 2026-05-05 10:09 | 44.28945 | 20.85636 | 36033 ft | 420 kts | 319° |
| 2026-05-05 10:10 | 44.33422 | 20.80391 | 36033 ft | 420 kts | 320° |
| 2026-05-05 10:10 | 44.37951 | 20.75227 | 36034 ft | 420 kts | 321° |
| 2026-05-05 10:11 | 44.42515 | 20.70109 | 36035 ft | 420 kts | 320° |
| 2026-05-05 10:11 | 44.47032 | 20.64999 | 36036 ft | 420 kts | 320° |
| 2026-05-05 10:12 | 44.51576 | 20.59818 | 36033 ft | 421 kts | 320° |
| 2026-05-05 10:12 | 44.56124 | 20.54626 | 36029 ft | 422 kts | 320° |
| 2026-05-05 10:13 | 44.60672 | 20.49418 | 36033 ft | 422 kts | 320° |
| 2026-05-05 10:13 | 44.65227 | 20.44199 | 36037 ft | 423 kts | 320° |
| 2026-05-05 10:14 | 44.69748 | 20.39006 | 36033 ft | 423 kts | 320° |
| 2026-05-05 10:14 | 44.74297 | 20.33763 | 36049 ft | 423 kts | 320° |
| 2026-05-05 10:15 | 44.78846 | 20.28510 | 36043 ft | 424 kts | 320° |
| 2026-05-05 10:15 | 44.83406 | 20.23247 | 36043 ft | 424 kts | 320° |
| 2026-05-05 10:16 | 44.87939 | 20.18006 | 36037 ft | 424 kts | 319° |
| 2026-05-05 10:16 | 44.92496 | 20.12720 | 36039 ft | 425 kts | 319° |
| 2026-05-05 10:17 | 44.97053 | 20.07407 | 36038 ft | 425 kts | 319° |
| 2026-05-05 10:17 | 45.01609 | 20.02081 | 36023 ft | 425 kts | 319° |
| 2026-05-05 10:18 | 45.06171 | 19.96756 | 36018 ft | 425 kts | 319° |
| 2026-05-05 10:18 | 45.10701 | 19.91453 | 36014 ft | 426 kts | 319° |
| 2026-05-05 10:19 | 45.15265 | 19.86100 | 36013 ft | 426 kts | 319° |
| 2026-05-05 10:19 | 45.19831 | 19.80736 | 36015 ft | 427 kts | 319° |
| 2026-05-05 10:20 | 45.24397 | 19.75351 | 36024 ft | 427 kts | 319° |
| 2026-05-05 10:20 | 45.28934 | 19.69993 | 36022 ft | 427 kts | 319° |
| 2026-05-05 10:21 | 45.33506 | 19.64590 | 36010 ft | 428 kts | 319° |
| 2026-05-05 10:21 | 45.38080 | 19.59168 | 36011 ft | 428 kts | 319° |
| 2026-05-05 10:22 | 45.42659 | 19.53733 | 36012 ft | 429 kts | 319° |
| 2026-05-05 10:22 | 45.47235 | 19.48276 | 36011 ft | 429 kts | 319° |
| 2026-05-05 10:23 | 45.51776 | 19.42843 | 36021 ft | 429 kts | 319° |
| 2026-05-05 10:23 | 45.56359 | 19.37366 | 36014 ft | 430 kts | 319° |
| 2026-05-05 10:24 | 45.60933 | 19.31877 | 36012 ft | 430 kts | 319° |
| 2026-05-05 10:24 | 45.65511 | 19.26378 | 36013 ft | 430 kts | 319° |
| 2026-05-05 10:25 | 45.70056 | 19.20914 | 36014 ft | 430 kts | 319° |
| 2026-05-05 10:25 | 45.74625 | 19.15397 | 36011 ft | 430 kts | 318° |
| 2026-05-05 10:26 | 45.79203 | 19.09859 | 36009 ft | 431 kts | 318° |
| 2026-05-05 10:26 | 45.83781 | 19.04305 | 36009 ft | 432 kts | 318° |
| 2026-05-05 10:27 | 45.88365 | 18.98733 | 36008 ft | 432 kts | 318° |
| 2026-05-05 10:27 | 45.92885 | 18.93143 | 36012 ft | 431 kts | 314° |
| 2026-05-05 10:28 | 45.96785 | 18.86618 | 36011 ft | 431 kts | 308° |
| 2026-05-05 10:28 | 46.00595 | 18.79961 | 36001 ft | 432 kts | 308° |
| 2026-05-05 10:29 | 46.04416 | 18.73288 | 36009 ft | 432 kts | 308° |
| 2026-05-05 10:29 | 46.08215 | 18.66650 | 36013 ft | 433 kts | 308° |
| 2026-05-05 10:30 | 46.12036 | 18.59947 | 36014 ft | 433 kts | 308° |
| 2026-05-05 10:30 | 46.15849 | 18.53232 | 36011 ft | 433 kts | 308° |
| 2026-05-05 10:31 | 46.19664 | 18.46500 | 36006 ft | 433 kts | 308° |
| 2026-05-05 10:31 | 46.23447 | 18.39806 | 36004 ft | 433 kts | 308° |
| 2026-05-05 10:32 | 46.27256 | 18.33063 | 35999 ft | 433 kts | 308° |
| 2026-05-05 10:32 | 46.31069 | 18.26307 | 35996 ft | 433 kts | 307° |
| 2026-05-05 10:33 | 46.34873 | 18.19538 | 35995 ft | 434 kts | 307° |
| 2026-05-05 10:33 | 46.38645 | 18.12788 | 35992 ft | 434 kts | 307° |
| 2026-05-05 10:34 | 46.42445 | 18.05990 | 35987 ft | 434 kts | 307° |
| 2026-05-05 10:34 | 46.46243 | 17.99191 | 35982 ft | 434 kts | 307° |
| 2026-05-05 10:35 | 46.50037 | 17.92374 | 35983 ft | 434 kts | 307° |
| 2026-05-05 10:35 | 46.53818 | 17.85543 | 35980 ft | 434 kts | 307° |
| 2026-05-05 10:36 | 46.57578 | 17.78754 | 35979 ft | 434 kts | 307° |
| 2026-05-05 10:36 | 46.61357 | 17.71919 | 35978 ft | 434 kts | 307° |
| 2026-05-05 10:37 | 46.65130 | 17.65076 | 35985 ft | 434 kts | 306° |
| 2026-05-05 10:37 | 46.68896 | 17.58215 | 35976 ft | 434 kts | 307° |
| 2026-05-05 10:38 | 46.72639 | 17.51392 | 35971 ft | 434 kts | 307° |
| 2026-05-05 10:38 | 46.76406 | 17.44503 | 35969 ft | 434 kts | 306° |
| 2026-05-05 10:39 | 46.80166 | 17.37605 | 35977 ft | 434 kts | 306° |
| 2026-05-05 10:39 | 46.83919 | 17.30704 | 35977 ft | 434 kts | 306° |
| 2026-05-05 10:40 | 46.87647 | 17.23848 | 35974 ft | 434 kts | 306° |
| 2026-05-05 10:40 | 46.91397 | 17.16927 | 35968 ft | 434 kts | 306° |
| 2026-05-05 10:41 | 46.95139 | 17.09989 | 35955 ft | 435 kts | 306° |
| 2026-05-05 10:41 | 46.98891 | 17.03033 | 35947 ft | 435 kts | 306° |
| 2026-05-05 10:42 | 47.04486 | 16.92608 | 35937 ft | 436 kts | 306° |
| 2026-05-05 10:43 | 47.08229 | 16.85619 | 35934 ft | 436 kts | 306° |
| 2026-05-05 10:43 | 47.11970 | 16.78609 | 35929 ft | 436 kts | 306° |
| 2026-05-05 10:44 | 47.15707 | 16.71591 | 35928 ft | 436 kts | 306° |
| 2026-05-05 10:44 | 47.19415 | 16.64616 | 35926 ft | 436 kts | 306° |
| 2026-05-05 10:45 | 47.23141 | 16.57579 | 35932 ft | 436 kts | 306° |
| 2026-05-05 10:45 | 47.26855 | 16.50541 | 35933 ft | 435 kts | 305° |
| 2026-05-05 10:46 | 47.30582 | 16.43535 | 35922 ft | 434 kts | 306° |
| 2026-05-05 10:46 | 47.34442 | 16.36702 | 35920 ft | 433 kts | 307° |
| 2026-05-05 10:47 | 47.38290 | 16.29940 | 35912 ft | 433 kts | 307° |
| 2026-05-05 10:47 | 47.42129 | 16.23088 | 35902 ft | 433 kts | 307° |
| 2026-05-05 10:48 | 47.45940 | 16.16210 | 35893 ft | 433 kts | 306° |
| 2026-05-05 10:48 | 47.49747 | 16.09325 | 35890 ft | 433 kts | 306° |
| 2026-05-05 10:49 | 47.53533 | 16.02482 | 35886 ft | 433 kts | 306° |
| 2026-05-05 10:49 | 47.57353 | 15.95588 | 35875 ft | 433 kts | 306° |
| 2026-05-05 10:50 | 47.61162 | 15.88676 | 35867 ft | 433 kts | 306° |
| 2026-05-05 10:50 | 47.64974 | 15.81751 | 35861 ft | 433 kts | 306° |
| 2026-05-05 10:51 | 47.68752 | 15.74859 | 35862 ft | 433 kts | 306° |
| 2026-05-05 10:51 | 47.72546 | 15.67902 | 35868 ft | 434 kts | 306° |
| 2026-05-05 10:52 | 47.76340 | 15.60930 | 35853 ft | 434 kts | 306° |
| 2026-05-05 10:52 | 47.80137 | 15.53961 | 35846 ft | 434 kts | 306° |
| 2026-05-05 10:53 | 47.83905 | 15.47033 | 35841 ft | 434 kts | 306° |
| 2026-05-05 10:53 | 47.87690 | 15.40030 | 35834 ft | 434 kts | 306° |
| 2026-05-05 10:54 | 47.91468 | 15.33004 | 35830 ft | 435 kts | 306° |
| 2026-05-05 10:54 | 47.95259 | 15.25965 | 35822 ft | 436 kts | 306° |
| 2026-05-05 10:55 | 47.99030 | 15.18959 | 35815 ft | 436 kts | 306° |
| 2026-05-05 10:55 | 48.02819 | 15.11881 | 35808 ft | 436 kts | 306° |
| 2026-05-05 10:56 | 48.06600 | 15.04790 | 35821 ft | 436 kts | 306° |
| 2026-05-05 10:56 | 48.10388 | 14.97690 | 35824 ft | 436 kts | 306° |
| 2026-05-05 10:57 | 48.14167 | 14.90581 | 35804 ft | 436 kts | 306° |
| 2026-05-05 10:57 | 48.17909 | 14.83505 | 35799 ft | 436 kts | 306° |
| 2026-05-05 10:58 | 48.21674 | 14.76374 | 35798 ft | 436 kts | 306° |
| 2026-05-05 10:58 | 48.25444 | 14.69243 | 35810 ft | 436 kts | 305° |
| 2026-05-05 10:59 | 48.29207 | 14.62099 | 35815 ft | 436 kts | 305° |
| 2026-05-05 10:59 | 48.32935 | 14.54984 | 35821 ft | 436 kts | 305° |
| 2026-05-05 11:00 | 48.36683 | 14.47810 | 35824 ft | 436 kts | 305° |
| 2026-05-05 11:00 | 48.40433 | 14.40629 | 35834 ft | 436 kts | 305° |
| 2026-05-05 11:01 | 48.44179 | 14.33441 | 35841 ft | 436 kts | 305° |
| 2026-05-05 11:01 | 48.47891 | 14.26282 | 35828 ft | 437 kts | 304° |
| 2026-05-05 11:02 | 48.51618 | 14.19058 | 35818 ft | 437 kts | 304° |
| 2026-05-05 11:02 | 48.55351 | 14.11825 | 35811 ft | 437 kts | 304° |
| 2026-05-05 11:03 | 48.59086 | 14.04574 | 35814 ft | 437 kts | 304° |
| 2026-05-05 11:03 | 48.62811 | 13.97308 | 35823 ft | 437 kts | 304° |
| 2026-05-05 11:04 | 48.66508 | 13.90084 | 35817 ft | 438 kts | 304° |
| 2026-05-05 11:04 | 48.70233 | 13.82797 | 35824 ft | 438 kts | 304° |
| 2026-05-05 11:05 | 48.73949 | 13.75493 | 35824 ft | 437 kts | 304° |
| 2026-05-05 11:05 | 48.77487 | 13.68029 | 35822 ft | 435 kts | 299° |
| 2026-05-05 11:06 | 48.80695 | 13.60326 | 35832 ft | 435 kts | 299° |
| 2026-05-05 11:06 | 48.83926 | 13.52559 | 35827 ft | 435 kts | 299° |
| 2026-05-05 11:07 | 48.87151 | 13.44784 | 35821 ft | 435 kts | 299° |
| 2026-05-05 11:07 | 48.90364 | 13.36995 | 35820 ft | 435 kts | 299° |
| 2026-05-05 11:08 | 48.93555 | 13.29249 | 35820 ft | 435 kts | 298° |
| 2026-05-05 11:08 | 48.96760 | 13.21441 | 35824 ft | 435 kts | 298° |
| 2026-05-05 11:09 | 48.99962 | 13.13620 | 35826 ft | 435 kts | 298° |
| 2026-05-05 11:09 | 49.03161 | 13.05787 | 35825 ft | 435 kts | 298° |
| 2026-05-05 11:10 | 49.06335 | 12.98017 | 35821 ft | 435 kts | 298° |
| 2026-05-05 11:10 | 49.09515 | 12.90178 | 35821 ft | 435 kts | 298° |
| 2026-05-05 11:11 | 49.12689 | 12.82329 | 35820 ft | 434 kts | 298° |
| 2026-05-05 11:11 | 49.15859 | 12.74474 | 35812 ft | 434 kts | 298° |
| 2026-05-05 11:12 | 49.19008 | 12.66675 | 35815 ft | 434 kts | 298° |
| 2026-05-05 11:12 | 49.22177 | 12.58816 | 35811 ft | 434 kts | 298° |
| 2026-05-05 11:13 | 49.25335 | 12.50946 | 35823 ft | 434 kts | 297° |
| 2026-05-05 11:13 | 49.28474 | 12.43046 | 35816 ft | 434 kts | 297° |
| 2026-05-05 11:14 | 49.31596 | 12.35190 | 35828 ft | 434 kts | 297° |
| 2026-05-05 11:14 | 49.34738 | 12.27282 | 35826 ft | 434 kts | 297° |
| 2026-05-05 11:15 | 49.37862 | 12.19369 | 35825 ft | 434 kts | 297° |
| 2026-05-05 11:15 | 49.40980 | 12.11443 | 35823 ft | 434 kts | 297° |
| 2026-05-05 11:16 | 49.44103 | 12.03510 | 35802 ft | 434 kts | 297° |
| 2026-05-05 11:16 | 49.47201 | 11.95610 | 35794 ft | 435 kts | 299° |
| 2026-05-05 11:17 | 49.50778 | 11.88046 | 35801 ft | 438 kts | 302° |
| 2026-05-05 11:17 | 49.54416 | 11.80532 | 35798 ft | 438 kts | 302° |
| 2026-05-05 11:18 | 49.58054 | 11.72997 | 35816 ft | 438 kts | 302° |
| 2026-05-05 11:18 | 49.61658 | 11.65500 | 35817 ft | 439 kts | 302° |
| 2026-05-05 11:19 | 49.65287 | 11.57920 | 35816 ft | 439 kts | 302° |
| 2026-05-05 11:19 | 49.68910 | 11.50334 | 35816 ft | 439 kts | 302° |
| 2026-05-05 11:20 | 49.72534 | 11.42742 | 35823 ft | 439 kts | 302° |
| 2026-05-05 11:20 | 49.76130 | 11.35186 | 35839 ft | 439 kts | 301° |
| 2026-05-05 11:21 | 49.79741 | 11.27558 | 35829 ft | 440 kts | 301° |
| 2026-05-05 11:21 | 49.83347 | 11.19909 | 35826 ft | 440 kts | 301° |
| 2026-05-05 11:22 | 49.86956 | 11.12252 | 35826 ft | 440 kts | 301° |
| 2026-05-05 11:22 | 49.90541 | 11.04635 | 35844 ft | 440 kts | 301° |
| 2026-05-05 11:23 | 49.94120 | 10.96950 | 35845 ft | 439 kts | 301° |
| 2026-05-05 11:23 | 49.97669 | 10.89230 | 35841 ft | 439 kts | 300° |
| 2026-05-05 11:24 | 50.01197 | 10.81491 | 35838 ft | 439 kts | 300° |
| 2026-05-05 11:24 | 50.04704 | 10.73784 | 35834 ft | 439 kts | 300° |
| 2026-05-05 11:25 | 50.08229 | 10.66018 | 35832 ft | 439 kts | 300° |
| 2026-05-05 11:25 | 50.11755 | 10.58251 | 35832 ft | 439 kts | 300° |
| 2026-05-05 11:26 | 50.15286 | 10.50469 | 35838 ft | 440 kts | 300° |
| 2026-05-05 11:26 | 50.18796 | 10.42659 | 35849 ft | 440 kts | 300° |
| 2026-05-05 11:27 | 50.22279 | 10.34893 | 35850 ft | 439 kts | 300° |
| 2026-05-05 11:27 | 50.25782 | 10.27091 | 35849 ft | 439 kts | 300° |
| 2026-05-05 11:28 | 50.29283 | 10.19284 | 35847 ft | 438 kts | 300° |
| 2026-05-05 11:28 | 50.32768 | 10.11453 | 35850 ft | 439 kts | 299° |
| 2026-05-05 11:29 | 50.36228 | 10.03663 | 35842 ft | 439 kts | 299° |
| 2026-05-05 11:29 | 50.39708 | 9.95798 | 35839 ft | 439 kts | 299° |
| 2026-05-05 11:30 | 50.43189 | 9.87920 | 35840 ft | 440 kts | 299° |
| 2026-05-05 11:30 | 50.46670 | 9.80034 | 35851 ft | 439 kts | 299° |
| 2026-05-05 11:31 | 50.50139 | 9.72137 | 35876 ft | 439 kts | 299° |
| 2026-05-05 11:31 | 50.53575 | 9.64293 | 35864 ft | 438 kts | 299° |
| 2026-05-05 11:32 | 50.57018 | 9.56383 | 35857 ft | 438 kts | 298° |
| 2026-05-05 11:32 | 50.60455 | 9.48461 | 35635 ft | 439 kts | 298° |
| 2026-05-05 11:32 | 50.62173 | 9.44499 | 35381 ft | 438 kts | 298° |
| 2026-05-05 11:33 | 50.63891 | 9.40541 | 35135 ft | 438 kts | 298° |
| 2026-05-05 11:33 | 50.65611 | 9.36581 | 34885 ft | 437 kts | 298° |
| 2026-05-05 11:33 | 50.67304 | 9.32674 | 34657 ft | 437 kts | 298° |
| 2026-05-05 11:33 | 50.69016 | 9.28712 | 34411 ft | 437 kts | 298° |
| 2026-05-05 11:34 | 50.70729 | 9.24740 | 33822 ft | 439 kts | 298° |
| 2026-05-05 11:34 | 50.72458 | 9.20703 | 32615 ft | 448 kts | 298° |
| 2026-05-05 11:34 | 50.74194 | 9.16649 | 32077 ft | 442 kts | 298° |
| 2026-05-05 11:34 | 50.75908 | 9.12646 | 31556 ft | 438 kts | 298° |
| 2026-05-05 11:35 | 50.77603 | 9.08683 | 30976 ft | 434 kts | 299° |
| 2026-05-05 11:35 | 50.79286 | 9.04749 | 30365 ft | 430 kts | 299° |
| 2026-05-05 11:35 | 50.80931 | 9.00894 | 29754 ft | 428 kts | 299° |
| 2026-05-05 11:35 | 50.82588 | 8.97007 | 29077 ft | 425 kts | 300° |
| 2026-05-05 11:36 | 50.84234 | 8.93145 | 28446 ft | 422 kts | 300° |
| 2026-05-05 11:36 | 50.85867 | 8.89308 | 27761 ft | 420 kts | 300° |
| 2026-05-05 11:36 | 50.87485 | 8.85493 | 27266 ft | 415 kts | 300° |
| 2026-05-05 11:36 | 50.89081 | 8.81728 | 26764 ft | 409 kts | 300° |
| 2026-05-05 11:37 | 50.90657 | 8.78011 | 26324 ft | 403 kts | 300° |
| 2026-05-05 11:37 | 50.92207 | 8.74344 | 25870 ft | 398 kts | 300° |
| 2026-05-05 11:37 | 50.93735 | 8.70722 | 25412 ft | 393 kts | 300° |
| 2026-05-05 11:37 | 50.95226 | 8.67186 | 24973 ft | 389 kts | 300° |
| 2026-05-05 11:38 | 50.96718 | 8.63635 | 24505 ft | 385 kts | 300° |
| 2026-05-05 11:38 | 50.98192 | 8.60110 | 24051 ft | 382 kts | 300° |
| 2026-05-05 11:38 | 50.99658 | 8.56600 | 23581 ft | 380 kts | 300° |
| 2026-05-05 11:38 | 51.01114 | 8.53118 | 23057 ft | 378 kts | 301° |
| 2026-05-05 11:39 | 51.02566 | 8.49661 | 22591 ft | 375 kts | 301° |
| 2026-05-05 11:39 | 51.04005 | 8.46224 | 22124 ft | 372 kts | 301° |
| 2026-05-05 11:39 | 51.05427 | 8.42819 | 21660 ft | 369 kts | 301° |
| 2026-05-05 11:39 | 51.06839 | 8.39431 | 21199 ft | 366 kts | 301° |
| 2026-05-05 11:40 | 51.08224 | 8.36107 | 20752 ft | 364 kts | 301° |
| 2026-05-05 11:40 | 51.09618 | 8.32760 | 20300 ft | 362 kts | 301° |
| 2026-05-05 11:40 | 51.11001 | 8.29420 | 19848 ft | 361 kts | 301° |
| 2026-05-05 11:40 | 51.12379 | 8.26083 | 19396 ft | 360 kts | 301° |
| 2026-05-05 11:41 | 51.13753 | 8.22756 | 18955 ft | 360 kts | 301° |
| 2026-05-05 11:41 | 51.15130 | 8.19429 | 18499 ft | 359 kts | 301° |
| 2026-05-05 11:41 | 51.16502 | 8.16115 | 18051 ft | 358 kts | 301° |
| 2026-05-05 11:41 | 51.17865 | 8.12810 | 17583 ft | 356 kts | 301° |
| 2026-05-05 11:42 | 51.19216 | 8.09525 | 17153 ft | 353 kts | 301° |
| 2026-05-05 11:42 | 51.20557 | 8.06265 | 16718 ft | 351 kts | 301° |
| 2026-05-05 11:42 | 51.21872 | 8.03066 | 16295 ft | 348 kts | 301° |
| 2026-05-05 11:42 | 51.23194 | 7.99843 | 15875 ft | 346 kts | 301° |
| 2026-05-05 11:43 | 51.24510 | 7.96636 | 15457 ft | 345 kts | 301° |
| 2026-05-05 11:43 | 51.25820 | 7.93436 | 15043 ft | 344 kts | 301° |
| 2026-05-05 11:43 | 51.27127 | 7.90237 | 14623 ft | 344 kts | 301° |
| 2026-05-05 11:43 | 51.28430 | 7.87050 | 14199 ft | 342 kts | 301° |
| 2026-05-05 11:44 | 51.29731 | 7.83869 | 13798 ft | 341 kts | 301° |
| 2026-05-05 11:44 | 51.31023 | 7.80695 | 13350 ft | 340 kts | 301° |
| 2026-05-05 11:44 | 51.32308 | 7.77527 | 12921 ft | 338 kts | 301° |
| 2026-05-05 11:44 | 51.33581 | 7.74380 | 12498 ft | 336 kts | 301° |
| 2026-05-05 11:45 | 51.34829 | 7.71295 | 12075 ft | 334 kts | 301° |
| 2026-05-05 11:45 | 51.36088 | 7.68179 | 11665 ft | 333 kts | 301° |
| 2026-05-05 11:45 | 51.37345 | 7.65072 | 11240 ft | 332 kts | 301° |
| 2026-05-05 11:45 | 51.38598 | 7.61984 | 10804 ft | 330 kts | 301° |
| 2026-05-05 11:46 | 51.39846 | 7.58903 | 10368 ft | 329 kts | 301° |
| 2026-05-05 11:46 | 51.41053 | 7.55804 | 9968 ft | 325 kts | 295° |
| 2026-05-05 11:46 | 51.41799 | 7.52482 | 9842 ft | 311 kts | 279° |
| 2026-05-05 11:46 | 51.41997 | 7.49122 | 9705 ft | 298 kts | 269° |
| 2026-05-05 11:47 | 51.42023 | 7.45836 | 9408 ft | 293 kts | 269° |
| 2026-05-05 11:47 | 51.42053 | 7.42670 | 8930 ft | 285 kts | 269° |
| 2026-05-05 11:47 | 51.42129 | 7.39521 | 8358 ft | 280 kts | 270° |
| 2026-05-05 11:47 | 51.42222 | 7.36415 | 7697 ft | 278 kts | 270° |
| 2026-05-05 11:48 | 51.42414 | 7.30278 | 6463 ft | 272 kts | 270° |
| 2026-05-05 11:48 | 51.42516 | 7.27258 | 5819 ft | 270 kts | 271° |
| 2026-05-05 11:48 | 51.42599 | 7.24254 | 5355 ft | 269 kts | 268° |
| 2026-05-05 11:49 | 51.42514 | 7.21283 | 5008 ft | 265 kts | 264° |
| 2026-05-05 11:49 | 51.42373 | 7.18388 | 4693 ft | 263 kts | 264° |
| 2026-05-05 11:49 | 51.42207 | 7.15499 | 4428 ft | 257 kts | 263° |
| 2026-05-05 11:49 | 51.42045 | 7.12671 | 4172 ft | 252 kts | 263° |
| 2026-05-05 11:50 | 51.41885 | 7.09900 | 3908 ft | 247 kts | 264° |
| 2026-05-05 11:50 | 51.41719 | 7.07195 | 3646 ft | 242 kts | 263° |
| 2026-05-05 11:50 | 51.41503 | 7.04541 | 3415 ft | 238 kts | 253° |
| 2026-05-05 11:50 | 51.40769 | 7.02214 | 3156 ft | 234 kts | 232° |
| 2026-05-05 11:51 | 51.39795 | 7.00159 | 3001 ft | 227 kts | 232° |
| 2026-05-05 11:51 | 51.38868 | 6.98202 | 2983 ft | 214 kts | 232° |
| 2026-05-05 11:51 | 51.38003 | 6.96374 | 2909 ft | 205 kts | 232° |
| 2026-05-05 11:51 | 51.37161 | 6.94587 | 2710 ft | 197 kts | 232° |
| 2026-05-05 11:52 | 51.36341 | 6.92849 | 2433 ft | 193 kts | 233° |
| 2026-05-05 11:52 | 51.35540 | 6.91155 | 2173 ft | 189 kts | 233° |
| 2026-05-05 11:52 | 51.34761 | 6.89517 | 1883 ft | 181 kts | 234° |
| 2026-05-05 11:52 | 51.34026 | 6.87978 | 1730 ft | 164 kts | 236° |
| 2026-05-05 11:53 | 51.33354 | 6.86558 | 1471 ft | 156 kts | 234° |
| 2026-05-05 11:53 | 51.32707 | 6.85190 | 1263 ft | 153 kts | 237° |
| 2026-05-05 11:53 | 51.32074 | 6.83845 | 1047 ft | 150 kts | 236° |
| 2026-05-05 11:53 | 51.31456 | 6.82545 | 857 ft | 148 kts | 236° |
| 2026-05-05 11:54 | 51.30835 | 6.81243 | 636 ft | 146 kts | 237° |
| 2026-05-05 11:54 | 51.30223 | 6.79956 | 456 ft | 145 kts | 237° |
| 2026-05-05 11:54 | 51.29619 | 6.78682 | 259 ft | 144 kts | 236° |
| 2026-05-05 11:54 | 51.29023 | 6.77438 | 131 ft | 132 kts | 237° |
| 2026-05-05 11:55 | 51.28560 | 6.76456 | 126 ft | 85 kts | 233° |
| 2026-05-05 11:55 | 51.28381 | 6.76098 | 126 ft | 24 kts | 219° |
| 2026-05-05 11:55 | 51.28229 | 6.76057 | 124 ft | 17 kts | 159° |
| 2026-05-05 11:55 | 51.28213 | 6.76194 | 125 ft | 15 kts | 54° |
| 2026-05-05 11:56 | 51.28275 | 6.76325 | 125 ft | 11 kts | 52° |
| 2026-05-05 11:56 | 51.28326 | 6.76433 | 124 ft | 14 kts | 52° |
| 2026-05-05 11:56 | 51.28391 | 6.76568 | 124 ft | 14 kts | 52° |
| 2026-05-05 11:56 | 51.28410 | 6.76676 | 124 ft | 11 kts | 125° |
| 2026-05-05 11:57 | 51.28356 | 6.76745 | 125 ft | 9 kts | 142° |
| 2026-05-05 11:57 | 51.28313 | 6.76799 | 125 ft | 10 kts | 141° |
| 2026-05-05 11:57 | 51.28246 | 6.76850 | 127 ft | 12 kts | 181° |
| 2026-05-05 11:57 | 51.28161 | 6.76835 | 129 ft | 9 kts | 190° |
| 2026-05-05 11:58 | 51.28152 | 6.76769 | 126 ft | 6 kts | 277° |
| 2026-05-05 11:58 | 51.28155 | 6.76737 | 128 ft | 0 kts | 277° |